createdAt,value
2018-05-31T00:01:43.354Z,78.10
2018-05-31T00:04:10.833Z,78.20
2018-05-31T00:06:39.077Z,78.70
2018-05-31T00:09:06.575Z,78.60
2018-05-31T00:11:34.826Z,78.70
2018-05-31T00:14:02.321Z,78.70
2018-05-31T00:16:29.819Z,78.80
2018-05-31T00:18:57.332Z,79.10
2018-05-31T00:21:24.836Z,79.40
2018-05-31T00:23:52.343Z,79.50
2018-05-31T00:26:19.874Z,79.60
2018-05-31T00:28:47.368Z,79.70
2018-05-31T00:31:14.854Z,79.60
2018-05-31T00:33:42.342Z,79.70
2018-05-31T00:36:09.854Z,79.60
2018-05-31T00:38:37.322Z,79.50
2018-05-31T00:41:04.807Z,79.70
2018-05-31T00:43:32.299Z,79.60
2018-05-31T00:46:00.558Z,79.60
2018-05-31T00:48:28.039Z,79.60
2018-05-31T00:50:55.556Z,79.80
2018-05-31T00:53:23.094Z,80.10
2018-05-31T00:56:02.438Z,81.00
2018-05-31T00:58:29.933Z,80.20
2018-05-31T01:00:58.187Z,80.40
2018-05-31T01:03:25.713Z,80.40
2018-05-31T01:05:53.213Z,80.60
2018-05-31T01:08:20.709Z,80.70
2018-05-31T01:10:48.202Z,80.50
2018-05-31T01:13:15.690Z,80.20
2018-05-31T01:15:43.180Z,80.20
2018-05-31T01:18:10.680Z,80.20
2018-05-31T01:20:38.158Z,80.30
2018-05-31T01:23:05.663Z,80.40
2018-05-31T01:25:33.142Z,80.50
2018-05-31T01:28:00.633Z,80.50
2018-05-31T01:30:28.157Z,80.70
2018-05-31T01:32:55.650Z,80.70
2018-05-31T01:35:23.143Z,80.70
2018-05-31T01:37:50.658Z,80.80
2018-05-31T01:40:18.175Z,81.40
2018-05-31T01:42:45.646Z,81.50
2018-05-31T01:45:13.135Z,81.80
2018-05-31T01:47:40.646Z,81.80
2018-05-31T01:50:08.122Z,81.90
2018-05-31T01:52:35.625Z,81.80
2018-05-31T01:55:03.967Z,81.80
2018-05-31T01:57:31.440Z,81.70
2018-05-31T01:59:58.922Z,81.90
2018-05-31T02:02:27.179Z,82.00
2018-05-31T02:04:54.699Z,81.90
2018-05-31T02:07:22.191Z,82.00
2018-05-31T02:09:49.655Z,82.20
2018-05-31T02:12:17.144Z,81.90
2018-05-31T02:14:44.667Z,82.30
2018-05-31T02:17:12.164Z,81.90
2018-05-31T02:19:39.679Z,81.90
2018-05-31T02:22:07.226Z,82.20
2018-05-31T02:24:34.706Z,82.90
2018-05-31T02:27:02.173Z,82.40
2018-05-31T02:29:30.422Z,83.10
2018-05-31T02:31:57.901Z,83.00
2018-05-31T02:34:26.149Z,83.40
2018-05-31T02:36:53.632Z,83.40
2018-05-31T02:39:21.893Z,83.50
2018-05-31T02:41:49.379Z,83.50
2018-05-31T02:44:17.644Z,83.70
2018-05-31T02:46:45.906Z,84.70
2018-05-31T02:49:13.388Z,83.80
2018-05-31T02:51:41.643Z,84.00
2018-05-31T02:54:09.914Z,84.50
2018-05-31T02:56:37.425Z,84.00
2018-05-31T02:59:04.931Z,84.00
2018-05-31T03:01:32.429Z,84.00
2018-05-31T03:03:59.929Z,84.40
2018-05-31T03:06:27.412Z,83.90
2018-05-31T03:08:54.954Z,83.90
2018-05-31T03:11:22.442Z,84.60
2018-05-31T03:13:50.699Z,83.90
2018-05-31T03:16:18.238Z,83.90
2018-05-31T03:18:45.715Z,83.90
2018-05-31T03:21:13.184Z,83.90
2018-05-31T03:23:41.447Z,84.00
2018-05-31T03:26:08.939Z,83.80
2018-05-31T03:28:36.447Z,83.90
2018-05-31T03:31:03.927Z,83.70
2018-05-31T03:33:32.173Z,83.70
2018-05-31T03:35:59.684Z,83.50
2018-05-31T03:38:27.196Z,83.60
2018-05-31T03:40:54.707Z,83.50
2018-05-31T03:43:22.206Z,83.40
2018-05-31T03:45:49.717Z,83.50
2018-05-31T03:48:17.202Z,83.40
2018-05-31T03:50:44.686Z,83.40
2018-05-31T03:53:12.158Z,83.30
2018-05-31T03:55:39.711Z,83.30
2018-05-31T03:58:07.196Z,83.10
2018-05-31T04:00:34.754Z,82.90
2018-05-31T04:03:02.994Z,82.70
2018-05-31T04:05:30.470Z,82.70
2018-05-31T04:07:57.995Z,82.60
2018-05-31T04:10:25.558Z,82.60
2018-05-31T04:12:53.029Z,82.50
2018-05-31T04:15:20.521Z,82.50
2018-05-31T04:17:48.783Z,82.10
2018-05-31T04:20:16.261Z,82.10
2018-05-31T04:22:43.750Z,82.00
2018-05-31T04:25:11.230Z,83.10
2018-05-31T04:27:38.716Z,82.40
2018-05-31T04:30:06.983Z,82.10
2018-05-31T04:32:34.477Z,81.90
2018-05-31T04:35:01.982Z,81.70
2018-05-31T04:37:29.492Z,81.60
2018-05-31T04:39:57.008Z,81.20
2018-05-31T04:42:24.517Z,80.90
2018-05-31T04:44:51.998Z,80.50
2018-05-31T04:47:19.478Z,80.30
2018-05-31T04:49:46.992Z,80.00
2018-05-31T04:52:14.466Z,80.40
2018-05-31T04:54:41.951Z,79.70
2018-05-31T04:57:09.431Z,79.60
2018-05-31T04:59:37.691Z,79.60
2018-05-31T05:02:05.225Z,79.40
2018-05-31T05:04:32.693Z,79.50
2018-05-31T05:07:00.230Z,79.20
2018-05-31T05:09:27.719Z,79.20
2018-05-31T05:11:55.244Z,79.00
2018-05-31T05:14:23.441Z,78.60
2018-05-31T05:16:50.935Z,78.60
2018-05-31T05:19:19.202Z,77.70
2018-05-31T05:21:47.454Z,77.20
2018-05-31T05:24:14.939Z,77.20
2018-05-31T05:26:43.186Z,76.80
2018-05-31T05:29:10.723Z,76.60
2018-05-31T05:31:38.231Z,75.70
2018-05-31T05:34:06.502Z,75.50
2018-05-31T05:36:34.746Z,75.00
2018-05-31T05:39:02.637Z,74.90
2018-05-31T05:41:30.122Z,74.80
2018-05-31T05:43:57.729Z,74.70
2018-05-31T05:46:25.211Z,74.80
2018-05-31T05:48:52.691Z,74.30
2018-05-31T05:51:20.960Z,73.90
2018-05-31T05:53:49.206Z,73.70
2018-05-31T05:56:16.702Z,73.50
2018-05-31T05:58:44.300Z,73.70
2018-05-31T06:01:11.792Z,73.70
2018-05-31T06:03:39.272Z,73.70
2018-05-31T06:06:07.543Z,73.30
2018-05-31T06:08:35.779Z,73.10
2018-05-31T06:11:03.277Z,72.90
2018-05-31T06:13:31.567Z,72.40
2018-05-31T06:15:59.069Z,72.40
2018-05-31T06:18:26.563Z,71.70
2018-05-31T06:20:54.889Z,71.30
2018-05-31T06:23:23.192Z,71.20
2018-05-31T06:25:50.694Z,71.20
2018-05-31T06:28:18.219Z,71.40
2018-05-31T06:30:45.714Z,71.10
2018-05-31T06:33:13.206Z,71.20
2018-05-31T06:35:40.695Z,71.30
2018-05-31T06:38:08.180Z,70.80
2018-05-31T06:40:36.460Z,70.80
2018-05-31T06:43:03.937Z,70.80
2018-05-31T06:45:31.411Z,70.80
2018-05-31T06:47:58.899Z,70.40
2018-05-31T06:50:27.203Z,70.00
2018-05-31T06:52:55.457Z,69.00
2018-05-31T06:55:23.019Z,69.00
2018-05-31T06:57:50.492Z,69.30
2018-05-31T07:00:18.725Z,67.90
2018-05-31T07:02:46.201Z,67.80
2018-05-31T07:05:13.678Z,68.30
2018-05-31T07:07:41.918Z,68.20
2018-05-31T07:10:09.392Z,68.10
2018-05-31T07:12:36.869Z,67.40
2018-05-31T07:15:05.166Z,67.30
2018-05-31T07:17:32.653Z,67.30
2018-05-31T07:20:00.142Z,67.30
2018-05-31T07:22:27.672Z,68.00
2018-05-31T07:24:55.174Z,67.30
2018-05-31T07:27:23.416Z,66.60
2018-05-31T07:29:50.874Z,66.60
2018-05-31T07:32:18.354Z,66.40
2018-05-31T07:34:46.603Z,65.60
2018-05-31T07:37:14.089Z,65.60
2018-05-31T07:39:41.578Z,66.20
2018-05-31T07:42:09.064Z,66.10
2018-05-31T07:44:36.542Z,66.00
2018-05-31T07:47:04.067Z,66.10
2018-05-31T07:49:31.556Z,65.10
2018-05-31T07:51:59.049Z,64.90
2018-05-31T07:54:27.298Z,65.60
2018-05-31T07:56:54.779Z,65.50
2018-05-31T07:59:23.026Z,65.40
2018-05-31T08:01:50.498Z,65.40
2018-05-31T08:04:18.003Z,64.00
2018-05-31T08:06:45.465Z,65.20
2018-05-31T08:09:12.935Z,64.90
2018-05-31T08:11:40.482Z,64.90
2018-05-31T08:14:08.033Z,65.00
2018-05-31T08:16:35.572Z,65.30
2018-05-31T08:19:03.047Z,65.20
2018-05-31T08:21:30.527Z,64.20
2018-05-31T08:23:58.054Z,64.40
2018-05-31T08:26:25.518Z,64.30
2018-05-31T08:28:52.990Z,64.20
2018-05-31T08:31:20.465Z,64.40
2018-05-31T08:33:47.944Z,63.80
2018-05-31T08:36:15.466Z,63.40
2018-05-31T08:38:42.943Z,64.60
2018-05-31T08:41:10.471Z,63.70
2018-05-31T08:43:37.965Z,63.50
2018-05-31T08:46:05.466Z,63.30
2018-05-31T08:48:32.951Z,62.70
2018-05-31T08:51:00.449Z,62.80
2018-05-31T08:53:27.907Z,61.30
2018-05-31T08:55:55.392Z,60.60
2018-05-31T08:58:23.645Z,60.50
2018-05-31T09:00:51.114Z,60.50
2018-05-31T09:03:19.379Z,60.80
2018-05-31T09:05:47.605Z,59.20
2018-05-31T09:08:15.138Z,59.70
2018-05-31T09:10:42.613Z,59.10
2018-05-31T09:13:10.106Z,58.50
2018-05-31T09:15:37.591Z,58.50
2018-05-31T09:18:05.841Z,58.60
2018-05-31T09:20:33.322Z,58.60
2018-05-31T09:23:01.582Z,58.40
2018-05-31T09:25:29.062Z,58.40
2018-05-31T09:27:57.305Z,57.20
2018-05-31T09:30:24.785Z,57.20
2018-05-31T09:32:53.029Z,56.20
2018-05-31T09:35:20.542Z,56.10
2018-05-31T09:37:48.014Z,56.50
2018-05-31T09:40:15.529Z,56.30
2018-05-31T09:42:43.012Z,53.40
2018-05-31T09:45:10.487Z,54.70
2018-05-31T09:47:37.995Z,54.50
2018-05-31T09:50:05.502Z,54.90
2018-05-31T09:52:32.973Z,53.20
2018-05-31T09:55:00.433Z,53.60
2018-05-31T09:57:27.915Z,55.20
2018-05-31T09:59:55.414Z,55.70
2018-05-31T10:02:23.687Z,54.00
2018-05-31T10:04:51.943Z,52.90
2018-05-31T10:07:19.431Z,52.90
2018-05-31T10:09:46.906Z,53.50
2018-05-31T10:12:14.406Z,53.00
2018-05-31T10:14:41.881Z,53.00
2018-05-31T10:17:10.179Z,53.80
2018-05-31T10:19:37.638Z,53.70
2018-05-31T10:22:05.131Z,53.80
2018-05-31T10:24:32.618Z,53.40
2018-05-31T10:27:00.131Z,52.60
2018-05-31T10:29:27.642Z,53.10
2018-05-31T10:31:55.941Z,52.30
2018-05-31T10:34:23.426Z,52.20
2018-05-31T10:36:50.890Z,52.70
2018-05-31T10:39:18.392Z,52.10
2018-05-31T10:41:46.642Z,52.70
2018-05-31T10:44:14.127Z,52.70
2018-05-31T10:46:42.366Z,50.90
2018-05-31T10:49:09.841Z,50.90
2018-05-31T10:51:37.309Z,52.20
2018-05-31T10:54:05.586Z,52.80
2018-05-31T10:56:33.849Z,52.50
2018-05-31T10:59:01.321Z,52.20
2018-05-31T11:01:29.590Z,51.60
2018-05-31T11:03:57.050Z,51.30
2018-05-31T11:06:24.530Z,51.30
2018-05-31T11:08:52.108Z,52.10
2018-05-31T11:11:19.584Z,52.90
2018-05-31T11:13:47.055Z,53.60
2018-05-31T11:16:14.525Z,52.80
2018-05-31T11:18:42.007Z,52.30
2018-05-31T11:21:10.254Z,50.30
2018-05-31T11:23:37.728Z,50.30
2018-05-31T11:26:05.259Z,50.00
2018-05-31T11:28:32.742Z,50.50
2018-05-31T11:31:00.224Z,50.90
2018-05-31T11:33:28.454Z,51.00
2018-05-31T11:35:56.205Z,50.90
2018-05-31T11:38:23.677Z,51.20
2018-05-31T11:40:51.146Z,50.90
2018-05-31T11:43:18.635Z,52.30
2018-05-31T11:45:46.869Z,52.50
2018-05-31T11:48:14.363Z,52.40
2018-05-31T11:50:42.655Z,53.00
2018-05-31T11:53:10.678Z,53.00
2018-05-31T11:55:38.205Z,53.00
2018-05-31T11:58:05.696Z,52.60
2018-05-31T12:00:33.207Z,52.30
2018-05-31T12:03:00.663Z,53.90
2018-05-31T12:05:28.171Z,52.60
2018-05-31T12:07:55.688Z,52.40
2018-05-31T12:10:23.157Z,52.40
2018-05-31T12:12:51.394Z,51.10
2018-05-31T12:15:18.903Z,50.50
2018-05-31T12:17:46.399Z,50.30
2018-05-31T12:20:14.679Z,52.60
2018-05-31T12:22:42.919Z,52.10
2018-05-31T12:25:10.447Z,52.00
2018-05-31T12:27:37.932Z,50.90
2018-05-31T12:30:05.431Z,51.50
2018-05-31T12:32:33.670Z,49.10
2018-05-31T12:35:01.158Z,49.10
2018-05-31T12:37:29.405Z,50.90
2018-05-31T12:39:56.878Z,50.80
2018-05-31T12:42:25.122Z,50.50
2018-05-31T12:44:52.602Z,50.50
2018-05-31T12:47:20.883Z,49.60
2018-05-31T12:49:48.438Z,48.70
2018-05-31T12:52:15.920Z,48.00
2018-05-31T12:54:43.399Z,47.40
2018-05-31T12:57:10.893Z,47.30
2018-05-31T12:59:38.362Z,46.70
2018-05-31T13:02:05.851Z,47.40
2018-05-31T13:04:34.099Z,46.90
2018-05-31T13:07:01.569Z,46.90
2018-05-31T13:09:29.829Z,46.60
2018-05-31T13:11:59.139Z,46.60
2018-05-31T13:14:26.643Z,47.50
2018-05-31T13:16:54.149Z,48.10
2018-05-31T13:19:21.638Z,48.60
2018-05-31T13:21:49.881Z,47.70
2018-05-31T13:24:17.388Z,47.60
2018-05-31T13:26:44.856Z,47.10
2018-05-31T13:29:12.336Z,48.70
2018-05-31T13:31:39.826Z,48.00
2018-05-31T13:34:08.053Z,48.90
2018-05-31T13:36:35.523Z,48.20
2018-05-31T13:39:03.001Z,48.20
2018-05-31T13:41:30.469Z,48.60
2018-05-31T13:43:57.954Z,47.80
2018-05-31T13:46:25.449Z,46.40
2018-05-31T13:48:52.910Z,46.20
2018-05-31T13:51:20.386Z,45.40
2018-05-31T13:53:47.879Z,46.10
2018-05-31T13:56:15.342Z,45.30
2018-05-31T13:58:42.793Z,45.40
2018-05-31T14:01:10.297Z,44.50
2018-05-31T14:03:37.789Z,43.90
2018-05-31T14:06:06.019Z,44.40
2018-05-31T14:08:34.266Z,44.20
2018-05-31T14:11:01.764Z,44.20
2018-05-31T14:13:29.236Z,44.80
2018-05-31T14:15:56.723Z,45.00
2018-05-31T14:18:24.964Z,45.90
2018-05-31T14:20:52.442Z,46.00
2018-05-31T14:23:20.678Z,47.30
2018-05-31T14:25:48.162Z,47.30
2018-05-31T14:28:15.650Z,47.30
2018-05-31T14:30:43.142Z,48.20
2018-05-31T14:33:10.609Z,49.00
2018-05-31T14:35:38.115Z,48.90
2018-05-31T14:38:06.362Z,49.70
2018-05-31T14:40:33.850Z,49.70
2018-05-31T14:43:02.098Z,49.50
2018-05-31T14:45:29.574Z,49.40
2018-05-31T14:47:57.818Z,53.00
2018-05-31T14:50:26.169Z,53.00
2018-05-31T14:52:53.676Z,55.20
2018-05-31T14:55:21.141Z,57.00
2018-05-31T14:57:49.405Z,58.30
2018-05-31T15:00:16.883Z,58.20
2018-05-31T15:02:45.142Z,60.10
2018-05-31T15:05:12.652Z,60.00
2018-05-31T15:07:40.145Z,62.70
2018-05-31T15:10:07.634Z,65.30
2018-05-31T15:12:35.861Z,70.30
2018-05-31T15:15:03.354Z,70.30
2018-05-31T15:17:30.883Z,70.90
2018-05-31T15:19:58.449Z,71.40
2018-05-31T15:22:25.926Z,72.40
2018-05-31T15:24:54.176Z,73.00
2018-05-31T15:27:21.661Z,72.20
2018-05-31T15:29:49.905Z,71.80
2018-05-31T15:32:17.402Z,71.70
2018-05-31T15:34:45.653Z,72.80
2018-05-31T15:37:13.156Z,72.50
2018-05-31T15:39:40.650Z,73.10
2018-05-31T15:42:08.178Z,74.20
2018-05-31T15:44:35.653Z,75.10
2018-05-31T15:47:03.119Z,75.30
2018-05-31T15:49:30.603Z,75.90
2018-05-31T15:51:58.061Z,77.50
2018-05-31T15:54:25.546Z,77.50
2018-05-31T15:56:53.138Z,77.90
2018-05-31T15:59:21.402Z,76.60
2018-05-31T16:01:48.893Z,76.70
2018-05-31T16:04:16.362Z,74.50
2018-05-31T16:06:43.881Z,75.00
2018-05-31T16:09:11.361Z,73.80
2018-05-31T16:11:38.826Z,73.30
2018-05-31T16:14:06.310Z,74.60
2018-05-31T16:16:34.545Z,74.20
2018-05-31T16:19:02.080Z,74.20
2018-05-31T16:21:29.561Z,74.10
2018-05-31T16:23:57.076Z,74.00
2018-05-31T16:26:25.306Z,73.00
2018-05-31T16:28:52.811Z,73.00
2018-05-31T16:31:20.346Z,72.90
2018-05-31T16:33:47.829Z,71.30
2018-05-31T16:36:15.318Z,70.30
2018-05-31T16:38:42.806Z,67.90
2018-05-31T16:41:10.278Z,67.20
2018-05-31T16:43:38.505Z,66.40
2018-05-31T16:46:05.985Z,66.30
2018-05-31T16:48:33.447Z,66.10
2018-05-31T16:51:00.925Z,65.10
2018-05-31T16:53:28.438Z,66.00
2018-05-31T16:55:55.897Z,64.90
2018-05-31T16:58:23.408Z,66.00
2018-05-31T17:00:51.633Z,66.00
2018-05-31T17:03:19.105Z,65.90
2018-05-31T17:05:46.590Z,65.70
2018-05-31T17:08:14.838Z,64.30
2018-05-31T17:10:42.326Z,64.30
2018-05-31T17:13:10.583Z,63.80
2018-05-31T17:15:38.091Z,63.80
2018-05-31T17:18:05.678Z,64.20
2018-05-31T17:20:33.172Z,64.90
2018-05-31T17:23:00.642Z,66.70
2018-05-31T17:25:28.878Z,67.40
2018-05-31T17:27:56.354Z,67.30
2018-05-31T17:30:23.814Z,67.70
2018-05-31T17:32:51.293Z,67.70
2018-05-31T17:35:18.769Z,67.70
2018-05-31T17:37:46.254Z,69.10
2018-05-31T17:40:13.727Z,69.80
2018-05-31T17:42:41.232Z,70.10
2018-05-31T17:45:08.780Z,71.10
2018-05-31T17:47:37.026Z,71.10
2018-05-31T17:50:04.496Z,71.00
2018-05-31T17:52:32.735Z,72.90
2018-05-31T17:55:00.242Z,72.20
2018-05-31T17:57:28.491Z,73.10
2018-05-31T17:59:56.346Z,73.00
2018-05-31T18:02:23.828Z,73.40
2018-05-31T18:04:52.074Z,74.00
2018-05-31T18:07:19.599Z,73.20
2018-05-31T18:09:47.082Z,72.90
2018-05-31T18:12:14.668Z,72.90
2018-05-31T18:14:42.268Z,73.50
2018-05-31T18:17:09.759Z,73.70
2018-05-31T18:19:37.241Z,74.00
2018-05-31T18:22:04.717Z,74.10
2018-05-31T18:24:32.973Z,74.20
2018-05-31T18:27:00.446Z,74.10
2018-05-31T18:29:27.931Z,74.30
2018-05-31T18:31:55.396Z,74.20
2018-05-31T18:34:22.877Z,74.50
2018-05-31T18:36:51.129Z,75.50
2018-05-31T18:39:18.638Z,75.50
2018-05-31T18:41:46.149Z,75.70
2018-05-31T18:44:13.634Z,76.20
2018-05-31T18:46:41.101Z,76.10
2018-05-31T18:49:08.571Z,76.00
2018-05-31T18:51:36.049Z,76.10
2018-05-31T18:54:04.282Z,76.50
2018-05-31T18:56:31.757Z,76.50
2018-05-31T18:58:59.227Z,76.90
2018-05-31T19:01:27.466Z,77.60
2018-05-31T19:03:55.001Z,77.60
2018-05-31T19:06:22.463Z,77.70
2018-05-31T19:08:49.981Z,78.00
2018-05-31T19:11:18.585Z,78.20
2018-05-31T19:13:51.597Z,78.10
2018-05-31T19:16:19.092Z,78.60
2018-05-31T19:18:53.092Z,78.70
2018-05-31T19:21:20.700Z,78.70
2018-05-31T19:23:49.681Z,78.70
2018-05-31T19:26:17.936Z,79.10
2018-05-31T19:28:45.420Z,79.10
2018-05-31T19:31:12.890Z,78.90
2018-05-31T19:33:40.394Z,78.80
2018-05-31T19:36:13.484Z,78.80
2018-05-31T19:38:40.942Z,78.60
2018-05-31T19:41:08.430Z,78.80
2018-05-31T19:43:42.274Z,78.80
2018-05-31T19:46:09.781Z,78.80
2018-05-31T19:48:38.017Z,79.20
2018-05-31T19:51:05.482Z,78.80
2018-05-31T19:53:38.684Z,79.50
2018-05-31T19:56:06.138Z,79.10
2018-05-31T19:58:39.355Z,79.50
2018-05-31T20:01:12.622Z,79.10
2018-05-31T20:03:40.098Z,79.30
2018-05-31T20:06:07.562Z,79.20
2018-05-31T20:08:35.830Z,79.80
2018-05-31T20:11:03.355Z,79.40
2018-05-31T20:13:30.855Z,79.70
2018-05-31T20:15:58.319Z,79.10
2018-05-31T20:18:26.579Z,78.40
2018-05-31T20:20:54.111Z,79.20
2018-05-31T20:23:21.549Z,78.70
2018-05-31T20:25:49.018Z,79.30
2018-05-31T20:28:16.502Z,79.20
2018-05-31T20:30:44.012Z,79.20
2018-05-31T20:33:11.478Z,79.30
2018-05-31T20:35:38.969Z,79.40
2018-05-31T20:38:06.439Z,79.70
2018-05-31T20:40:36.864Z,80.00
2018-05-31T20:43:04.471Z,79.80
2018-05-31T20:45:31.961Z,80.30
2018-05-31T20:48:00.515Z,80.50
2018-05-31T20:50:27.974Z,80.40
2018-05-31T20:52:55.455Z,80.60
2018-05-31T20:55:22.949Z,80.60
2018-05-31T20:57:50.467Z,80.50
2018-05-31T21:00:17.943Z,81.10
2018-05-31T21:02:45.418Z,81.20
2018-05-31T21:05:13.669Z,81.30
2018-05-31T21:07:41.146Z,80.90
2018-05-31T21:10:08.622Z,81.10
2018-05-31T21:12:36.872Z,81.00
2018-05-31T21:15:04.366Z,80.90
2018-05-31T21:17:31.866Z,81.20
2018-05-31T21:19:59.359Z,81.70
2018-05-31T21:22:27.616Z,82.60
2018-05-31T21:24:55.091Z,82.40
2018-05-31T21:27:23.361Z,82.70
2018-05-31T21:29:50.830Z,82.70
2018-05-31T21:32:19.054Z,82.60
2018-05-31T21:34:46.537Z,82.70
2018-05-31T21:37:14.014Z,82.30
2018-05-31T21:39:42.266Z,82.50
2018-05-31T21:42:09.758Z,82.30
2018-05-31T21:44:38.008Z,82.40
2018-05-31T21:47:05.478Z,82.30
2018-05-31T21:49:33.731Z,82.40
2018-05-31T21:52:02.001Z,82.30
2018-05-31T21:54:29.480Z,82.70
2018-05-31T21:56:56.945Z,82.70
2018-05-31T21:59:25.193Z,82.90
2018-05-31T22:01:52.676Z,82.80
2018-05-31T22:04:21.063Z,83.30
2018-05-31T22:06:49.322Z,83.10
2018-05-31T22:09:16.785Z,83.10
2018-05-31T22:11:44.622Z,83.10
2018-05-31T22:14:12.079Z,82.40
2018-05-31T22:16:39.579Z,82.60
2018-05-31T22:19:07.823Z,82.50
2018-05-31T22:21:36.798Z,82.80
2018-05-31T22:24:04.276Z,82.70
2018-05-31T22:26:31.780Z,82.50
2018-05-31T22:28:59.247Z,82.60
2018-05-31T22:31:26.720Z,82.70
2018-05-31T22:33:54.219Z,82.70
2018-05-31T22:36:21.717Z,83.00
2018-05-31T22:38:49.203Z,83.10
2018-05-31T22:41:16.678Z,83.40
2018-05-31T22:43:44.164Z,83.40
2018-05-31T22:46:12.394Z,83.60
2018-05-31T22:48:39.887Z,83.60
2018-05-31T22:51:07.355Z,83.70
2018-05-31T22:53:35.609Z,83.70
2018-05-31T22:56:03.085Z,83.70
2018-05-31T22:58:31.338Z,83.80
2018-05-31T23:00:58.831Z,83.80
2018-05-31T23:03:27.098Z,83.90
2018-05-31T23:05:55.381Z,84.30
2018-05-31T23:08:24.366Z,85.00
2018-05-31T23:10:51.906Z,84.40
2018-05-31T23:13:19.403Z,84.40
2018-05-31T23:15:46.887Z,84.40
2018-05-31T23:18:14.379Z,84.60
2018-05-31T23:20:41.841Z,84.50
2018-05-31T23:23:10.107Z,84.60
2018-05-31T23:25:37.568Z,84.40
2018-05-31T23:28:05.045Z,84.20
2018-05-31T23:30:33.308Z,84.20
2018-05-31T23:33:01.579Z,84.50
2018-05-31T23:35:29.046Z,84.30
2018-05-31T23:37:57.321Z,84.80
2018-05-31T23:40:25.563Z,84.80
2018-05-31T23:42:53.044Z,84.80
2018-05-31T23:45:20.622Z,85.00
2018-05-31T23:47:48.875Z,85.30
2018-05-31T23:50:16.341Z,85.20
2018-05-31T23:52:44.581Z,85.00
2018-05-31T23:55:12.071Z,85.00
2018-05-31T23:57:39.535Z,84.90
